sensor_id;sensor_type;location;lat;lon;timestamp;pressure;altitude;pressure_sealevel;temperature;humidity
8894;BME280;4483;48.622;9.230;2023-01-29T00:00:20;98954.97;;;1.27;92.56
8894;BME280;4483;48.622;9.230;2023-01-29T00:02:47;98966.06;;;1.32;92.73
8894;BME280;4483;48.622;9.230;2023-01-29T00:05:14;98957.63;;;1.34;92.03
8894;BME280;4483;48.622;9.230;2023-01-29T00:07:40;98958.50;;;1.35;92.02
8894;BME280;4483;48.622;9.230;2023-01-29T00:10:08;98965.25;;;1.36;91.80
8894;BME280;4483;48.622;9.230;2023-01-29T00:12:35;98967.84;;;1.39;92.59
8894;BME280;4483;48.622;9.230;2023-01-29T00:15:02;98957.72;;;1.40;91.95
8894;BME280;4483;48.622;9.230;2023-01-29T00:17:31;98955.19;;;1.42;92.18
8894;BME280;4483;48.622;9.230;2023-01-29T00:19:57;98944.22;;;1.44;92.01
8894;BME280;4483;48.622;9.230;2023-01-29T00:22:24;98952.66;;;1.43;92.55
8894;BME280;4483;48.622;9.230;2023-01-29T00:24:51;98955.25;;;1.46;92.41
8894;BME280;4483;48.622;9.230;2023-01-29T00:27:18;98952.66;;;1.43;91.76
8894;BME280;4483;48.622;9.230;2023-01-29T00:29:44;98968.78;;;1.47;91.73
8894;BME280;4483;48.622;9.230;2023-01-29T00:32:33;98961.16;;;1.47;91.77
8894;BME280;4483;48.622;9.230;2023-01-29T00:34:59;98959.50;;;1.47;91.43
8894;BME280;4483;48.622;9.230;2023-01-29T00:37:26;98958.63;;;1.47;91.53
8894;BME280;4483;48.622;9.230;2023-01-29T00:39:52;98952.75;;;1.48;91.53
8894;BME280;4483;48.622;9.230;2023-01-29T00:42:19;98954.41;;;1.47;91.70
8894;BME280;4483;48.622;9.230;2023-01-29T00:45:04;98950.19;;;1.46;91.86
8894;BME280;4483;48.622;9.230;2023-01-29T00:47:32;98955.28;;;1.49;91.53
8894;BME280;4483;48.622;9.230;2023-01-29T00:49:59;98948.56;;;1.53;91.97
8894;BME280;4483;48.622;9.230;2023-01-29T00:52:26;98941.81;;;1.53;91.51
8894;BME280;4483;48.622;9.230;2023-01-29T00:54:55;98945.16;;;1.51;91.16
8894;BME280;4483;48.622;9.230;2023-01-29T00:57:23;98942.66;;;1.54;91.62
8894;BME280;4483;48.622;9.230;2023-01-29T00:59:50;98955.38;;;1.54;91.26
8894;BME280;4483;48.622;9.230;2023-01-29T01:02:17;98955.38;;;1.54;91.49
8894;BME280;4483;48.622;9.230;2023-01-29T01:05:04;98957.84;;;1.52;91.00
8894;BME280;4483;48.622;9.230;2023-01-29T01:07:32;98949.44;;;1.53;91.55
8894;BME280;4483;48.622;9.230;2023-01-29T01:09:59;98937.53;;;1.51;91.58
8894;BME280;4483;48.622;9.230;2023-01-29T01:12:43;98940.06;;;1.51;91.45
8894;BME280;4483;48.622;9.230;2023-01-29T01:15:10;98950.28;;;1.54;91.03
8894;BME280;4483;48.622;9.230;2023-01-29T01:17:37;98944.34;;;1.53;91.22
8894;BME280;4483;48.622;9.230;2023-01-29T01:20:06;98940.06;;;1.52;91.03
8894;BME280;4483;48.622;9.230;2023-01-29T01:22:32;98946.81;;;1.50;91.21
8894;BME280;4483;48.622;9.230;2023-01-29T01:25:00;98945.16;;;1.52;91.43
8894;BME280;4483;48.622;9.230;2023-01-29T01:27:26;98950.22;;;1.51;91.65
8894;BME280;4483;48.622;9.230;2023-01-29T01:29:53;98946.88;;;1.52;90.96
8894;BME280;4483;48.622;9.230;2023-01-29T01:32:20;98943.47;;;1.53;90.92
8894;BME280;4483;48.622;9.230;2023-01-29T01:34:47;98945.22;;;1.54;91.04
8894;BME280;4483;48.622;9.230;2023-01-29T01:37:14;98938.41;;;1.54;91.39
8894;BME280;4483;48.622;9.230;2023-01-29T01:39:41;98932.53;;;1.55;91.30
8894;BME280;4483;48.622;9.230;2023-01-29T01:42:11;98929.97;;;1.54;90.78
8894;BME280;4483;48.622;9.230;2023-01-29T01:44:50;98939.34;;;1.59;90.93
8894;BME280;4483;48.622;9.230;2023-01-29T01:47:20;98936.81;;;1.61;90.63
8894;BME280;4483;48.622;9.230;2023-01-29T01:49:47;98932.56;;;1.61;90.73
8894;BME280;4483;48.622;9.230;2023-01-29T01:52:16;98932.63;;;1.63;90.75
8894;BME280;4483;48.622;9.230;2023-01-29T01:54:43;98929.19;;;1.61;90.04
8894;BME280;4483;48.622;9.230;2023-01-29T01:57:13;98930.00;;;1.60;90.02
8894;BME280;4483;48.622;9.230;2023-01-29T01:59:46;98925.78;;;1.59;90.10
8894;BME280;4483;48.622;9.230;2023-01-29T02:02:15;98929.19;;;1.59;90.10
8894;BME280;4483;48.622;9.230;2023-01-29T02:05:00;98924.09;;;1.59;90.50
8894;BME280;4483;48.622;9.230;2023-01-29T02:07:48;98926.66;;;1.59;90.22
8894;BME280;4483;48.622;9.230;2023-01-29T02:10:37;98929.19;;;1.59;90.41
8894;BME280;4483;48.622;9.230;2023-01-29T02:13:06;98935.16;;;1.63;90.45
8894;BME280;4483;48.622;9.230;2023-01-29T02:15:33;98928.38;;;1.65;90.50
8894;BME280;4483;48.622;9.230;2023-01-29T02:17:59;98929.22;;;1.64;89.84
8894;BME280;4483;48.622;9.230;2023-01-29T02:20:28;98930.91;;;1.63;89.98
8894;BME280;4483;48.622;9.230;2023-01-29T02:23:18;98941.91;;;1.61;89.86
8894;BME280;4483;48.622;9.230;2023-01-29T02:26:11;98938.41;;;1.54;89.84
8894;BME280;4483;48.622;9.230;2023-01-29T02:28:46;98923.13;;;1.50;89.57
8894;BME280;4483;48.622;9.230;2023-01-29T02:31:23;98937.59;;;1.55;89.79
8894;BME280;4483;48.622;9.230;2023-01-29T02:34:03;98936.75;;;1.55;89.51
8894;BME280;4483;48.622;9.230;2023-01-29T02:36:38;98943.47;;;1.53;88.88
8894;BME280;4483;48.622;9.230;2023-01-29T02:39:14;98946.00;;;1.51;89.58
8894;BME280;4483;48.622;9.230;2023-01-29T02:41:46;98948.53;;;1.50;89.58
8894;BME280;4483;48.622;9.230;2023-01-29T02:44:22;98950.19;;;1.48;89.55
8894;BME280;4483;48.622;9.230;2023-01-29T02:46:55;98950.19;;;1.46;89.10
8894;BME280;4483;48.622;9.230;2023-01-29T02:49:29;98945.94;;;1.47;88.97
8894;BME280;4483;48.622;9.230;2023-01-29T02:52:01;98945.13;;;1.48;89.47
8894;BME280;4483;48.622;9.230;2023-01-29T02:54:33;98951.88;;;1.49;89.08
8894;BME280;4483;48.622;9.230;2023-01-29T02:57:10;98947.66;;;1.48;88.98
8894;BME280;4483;48.622;9.230;2023-01-29T02:59:46;98946.81;;;1.49;89.14
8894;BME280;4483;48.622;9.230;2023-01-29T03:02:18;98946.78;;;1.46;89.58
8894;BME280;4483;48.622;9.230;2023-01-29T03:04:51;98945.97;;;1.48;89.48
8894;BME280;4483;48.622;9.230;2023-01-29T03:07:24;98949.34;;;1.49;89.03
8894;BME280;4483;48.622;9.230;2023-01-29T03:10:12;98945.94;;;1.47;88.31
8894;BME280;4483;48.622;9.230;2023-01-29T03:12:43;98943.28;;;1.39;88.28
8894;BME280;4483;48.622;9.230;2023-01-29T03:15:18;98939.81;;;1.30;88.29
8894;BME280;4483;48.622;9.230;2023-01-29T03:17:53;98945.66;;;1.26;87.66
8894;BME280;4483;48.622;9.230;2023-01-29T03:20:25;98938.88;;;1.25;88.22
8894;BME280;4483;48.622;9.230;2023-01-29T03:22:56;98935.50;;;1.24;88.66
8894;BME280;4483;48.622;9.230;2023-01-29T03:25:27;98938.06;;;1.26;88.00
8894;BME280;4483;48.622;9.230;2023-01-29T03:28:14;98922.75;;;1.21;88.56
8894;BME280;4483;48.622;9.230;2023-01-29T03:31:02;98941.50;;;1.32;88.21
8894;BME280;4483;48.622;9.230;2023-01-29T03:33:49;98936.47;;;1.34;88.37
8894;BME280;4483;48.622;9.230;2023-01-29T03:36:20;98939.06;;;1.38;88.73
8894;BME280;4483;48.622;9.230;2023-01-29T03:38:48;98944.16;;;1.41;88.62
8894;BME280;4483;48.622;9.230;2023-01-29T03:41:22;98951.84;;;1.43;88.52
8894;BME280;4483;48.622;9.230;2023-01-29T03:43:55;98947.56;;;1.40;88.43
8894;BME280;4483;48.622;9.230;2023-01-29T03:46:30;98944.16;;;1.38;88.51
8894;BME280;4483;48.622;9.230;2023-01-29T03:49:00;98938.16;;;1.35;87.82
8894;BME280;4483;48.622;9.230;2023-01-29T03:51:36;98938.16;;;1.32;88.63
8894;BME280;4483;48.622;9.230;2023-01-29T03:54:08;98939.84;;;1.34;88.06
8894;BME280;4483;48.622;9.230;2023-01-29T03:56:44;98933.88;;;1.31;88.44
8894;BME280;4483;48.622;9.230;2023-01-29T03:59:21;98935.63;;;1.33;88.67
8894;BME280;4483;48.622;9.230;2023-01-29T04:01:52;98939.84;;;1.34;88.18
8894;BME280;4483;48.622;9.230;2023-01-29T04:04:23;98929.59;;;1.27;88.32
8894;BME280;4483;48.622;9.230;2023-01-29T04:06:51;98943.28;;;1.38;88.59
8894;BME280;4483;48.622;9.230;2023-01-29T04:09:24;98944.16;;;1.40;87.97
8894;BME280;4483;48.622;9.230;2023-01-29T04:11:58;98946.72;;;1.41;88.57
8894;BME280;4483;48.622;9.230;2023-01-29T04:14:27;98939.09;;;1.41;87.90
8894;BME280;4483;48.622;9.230;2023-01-29T04:16:59;98944.22;;;1.43;88.00
8894;BME280;4483;48.622;9.230;2023-01-29T04:19:27;98942.50;;;1.43;88.16
8894;BME280;4483;48.622;9.230;2023-01-29T04:22:00;98948.44;;;1.44;88.25
8894;BME280;4483;48.622;9.230;2023-01-29T04:24:28;98954.41;;;1.46;88.04
8894;BME280;4483;48.622;9.230;2023-01-29T04:27:05;98954.41;;;1.46;87.91
8894;BME280;4483;48.622;9.230;2023-01-29T04:29:49;98939.97;;;1.43;88.31
8894;BME280;4483;48.622;9.230;2023-01-29T04:32:21;98946.78;;;1.46;87.47
8894;BME280;4483;48.622;9.230;2023-01-29T04:34:59;98943.38;;;1.44;87.99
8894;BME280;4483;48.622;9.230;2023-01-29T04:37:34;98944.25;;;1.46;87.88
8894;BME280;4483;48.622;9.230;2023-01-29T04:40:12;98948.53;;;1.48;88.21
8894;BME280;4483;48.622;9.230;2023-01-29T04:42:45;98943.47;;;1.50;87.67
8894;BME280;4483;48.622;9.230;2023-01-29T04:45:17;98951.94;;;1.52;87.52
8894;BME280;4483;48.622;9.230;2023-01-29T04:47:53;98939.19;;;1.49;87.06
8894;BME280;4483;48.622;9.230;2023-01-29T04:50:27;98948.53;;;1.50;87.26
8894;BME280;4483;48.622;9.230;2023-01-29T04:52:59;98945.91;;;1.45;87.05
8894;BME280;4483;48.622;9.230;2023-01-29T04:55:34;98934.91;;;1.45;87.97
8894;BME280;4483;48.622;9.230;2023-01-29T04:58:05;98947.59;;;1.43;87.15
8894;BME280;4483;48.622;9.230;2023-01-29T05:00:37;98934.88;;;1.42;87.67
8894;BME280;4483;48.622;9.230;2023-01-29T05:03:07;98941.69;;;1.43;87.38
8894;BME280;4483;48.622;9.230;2023-01-29T05:05:35;98943.34;;;1.41;87.49
8894;BME280;4483;48.622;9.230;2023-01-29T05:08:03;98936.59;;;1.43;87.70
8894;BME280;4483;48.622;9.230;2023-01-29T05:10:32;98947.59;;;1.43;87.29
8894;BME280;4483;48.622;9.230;2023-01-29T05:13:05;98932.31;;;1.40;87.48
8894;BME280;4483;48.622;9.230;2023-01-29T05:15:35;98945.94;;;1.47;86.86
8894;BME280;4483;48.622;9.230;2023-01-29T05:18:03;98946.78;;;1.46;87.40
8894;BME280;4483;48.622;9.230;2023-01-29T05:20:36;98954.41;;;1.46;87.17
8894;BME280;4483;48.622;9.230;2023-01-29T05:23:05;98942.53;;;1.45;87.13
8894;BME280;4483;48.622;9.230;2023-01-29T05:25:34;98945.09;;;1.46;87.67
8894;BME280;4483;48.622;9.230;2023-01-29T05:28:01;98943.41;;;1.47;87.89
8894;BME280;4483;48.622;9.230;2023-01-29T05:30:31;98939.16;;;1.46;87.19
8894;BME280;4483;48.622;9.230;2023-01-29T05:32:58;98934.09;;;1.46;87.71
8894;BME280;4483;48.622;9.230;2023-01-29T05:35:25;98936.63;;;1.46;87.75
8894;BME280;4483;48.622;9.230;2023-01-29T05:37:54;98938.31;;;1.47;87.05
8894;BME280;4483;48.622;9.230;2023-01-29T05:40:22;98933.25;;;1.47;86.88
8894;BME280;4483;48.622;9.230;2023-01-29T05:42:48;98944.25;;;1.47;86.76
8894;BME280;4483;48.622;9.230;2023-01-29T05:45:15;98947.66;;;1.48;87.05
8894;BME280;4483;48.622;9.230;2023-01-29T05:47:42;98948.53;;;1.50;87.33
8894;BME280;4483;48.622;9.230;2023-01-29T05:50:11;98941.78;;;1.52;87.25
8894;BME280;4483;48.622;9.230;2023-01-29T05:52:37;98940.13;;;1.54;87.11
8894;BME280;4483;48.622;9.230;2023-01-29T05:55:07;98929.91;;;1.51;87.35
8894;BME280;4483;48.622;9.230;2023-01-29T05:57:34;98942.59;;;1.51;86.70
8894;BME280;4483;48.622;9.230;2023-01-29T06:00:01;98945.97;;;1.48;86.35
8894;BME280;4483;48.622;9.230;2023-01-29T06:02:28;98931.56;;;1.47;86.40
8894;BME280;4483;48.622;9.230;2023-01-29T06:04:55;98920.44;;;1.39;86.35
8894;BME280;4483;48.622;9.230;2023-01-29T06:07:22;98914.47;;;1.36;85.88
8894;BME280;4483;48.622;9.230;2023-01-29T06:09:49;98909.34;;;1.30;86.23
8894;BME280;4483;48.622;9.230;2023-01-29T06:12:17;98911.88;;;1.28;86.22
8894;BME280;4483;48.622;9.230;2023-01-29T06:14:43;98916.09;;;1.28;86.64
8894;BME280;4483;48.622;9.230;2023-01-29T06:17:10;98912.69;;;1.27;86.10
8894;BME280;4483;48.622;9.230;2023-01-29T06:19:36;98908.47;;;1.29;86.72
8894;BME280;4483;48.622;9.230;2023-01-29T06:22:03;98902.59;;;1.32;86.55
8894;BME280;4483;48.622;9.230;2023-01-29T06:24:30;98913.66;;;1.37;86.16
8894;BME280;4483;48.622;9.230;2023-01-29T06:26:57;98910.28;;;1.39;86.27
8894;BME280;4483;48.622;9.230;2023-01-29T06:29:25;98914.53;;;1.40;86.18
8894;BME280;4483;48.622;9.230;2023-01-29T06:31:51;98923.84;;;1.41;86.26
8894;BME280;4483;48.622;9.230;2023-01-29T06:34:18;98922.19;;;1.42;86.14
8894;BME280;4483;48.622;9.230;2023-01-29T06:36:44;98927.28;;;1.45;86.10
8894;BME280;4483;48.622;9.230;2023-01-29T06:39:11;98933.25;;;1.47;86.37
8894;BME280;4483;48.622;9.230;2023-01-29T06:41:38;98932.41;;;1.48;85.90
8894;BME280;4483;48.622;9.230;2023-01-29T06:44:04;98927.34;;;1.48;86.05
8894;BME280;4483;48.622;9.230;2023-01-29T06:46:32;98928.13;;;1.44;86.14
8894;BME280;4483;48.622;9.230;2023-01-29T06:48:59;98928.13;;;1.44;85.89
8894;BME280;4483;48.622;9.230;2023-01-29T06:51:26;98921.38;;;1.43;86.10
8894;BME280;4483;48.622;9.230;2023-01-29T06:53:52;98928.94;;;1.41;85.64
8894;BME280;4483;48.622;9.230;2023-01-29T06:56:20;98951.84;;;1.43;85.50
8894;BME280;4483;48.622;9.230;2023-01-29T06:58:47;98946.78;;;1.46;86.34
8894;BME280;4483;48.622;9.230;2023-01-29T07:01:14;98940.03;;;1.46;86.40
8894;BME280;4483;48.622;9.230;2023-01-29T07:03:42;98934.09;;;1.47;86.28
8894;BME280;4483;48.622;9.230;2023-01-29T07:06:09;98940.91;;;1.50;86.31
8894;BME280;4483;48.622;9.230;2023-01-29T07:08:37;98940.03;;;1.48;85.90
8894;BME280;4483;48.622;9.230;2023-01-29T07:11:04;98950.22;;;1.51;85.93
8894;BME280;4483;48.622;9.230;2023-01-29T07:13:31;98956.19;;;1.54;86.44
8894;BME280;4483;48.622;9.230;2023-01-29T07:15:59;98955.38;;;1.54;86.52
8894;BME280;4483;48.622;9.230;2023-01-29T07:18:25;98959.59;;;1.56;86.39
8894;BME280;4483;48.622;9.230;2023-01-29T07:20:54;98961.34;;;1.57;85.92
8894;BME280;4483;48.622;9.230;2023-01-29T07:23:21;98954.53;;;1.56;85.79
8894;BME280;4483;48.622;9.230;2023-01-29T07:25:48;98952.84;;;1.55;85.06
8894;BME280;4483;48.622;9.230;2023-01-29T07:28:15;98947.75;;;1.54;85.00
8894;BME280;4483;48.622;9.230;2023-01-29T07:30:41;98957.81;;;1.48;85.34
8894;BME280;4483;48.622;9.230;2023-01-29T07:33:09;98959.53;;;1.50;84.78
8894;BME280;4483;48.622;9.230;2023-01-29T07:35:37;98952.00;;;1.58;85.50
8894;BME280;4483;48.622;9.230;2023-01-29T07:38:05;98952.78;;;1.52;84.96
8894;BME280;4483;48.622;9.230;2023-01-29T07:40:32;98956.16;;;1.51;84.88
8894;BME280;4483;48.622;9.230;2023-01-29T07:42:59;98962.13;;;1.53;84.30
8894;BME280;4483;48.622;9.230;2023-01-29T07:45:26;98966.34;;;1.53;84.59
8894;BME280;4483;48.622;9.230;2023-01-29T07:47:54;98968.06;;;1.54;84.10
8894;BME280;4483;48.622;9.230;2023-01-29T07:50:22;98972.28;;;1.55;84.70
8894;BME280;4483;48.622;9.230;2023-01-29T07:52:49;98975.75;;;1.60;84.56
8894;BME280;4483;48.622;9.230;2023-01-29T07:55:17;98974.91;;;1.61;84.30
8894;BME280;4483;48.622;9.230;2023-01-29T07:57:44;98982.53;;;1.61;84.21
8894;BME280;4483;48.622;9.230;2023-01-29T08:00:12;98982.56;;;1.62;83.83
8894;BME280;4483;48.622;9.230;2023-01-29T08:02:39;98984.25;;;1.65;84.24
8894;BME280;4483;48.622;9.230;2023-01-29T08:05:07;98978.28;;;1.61;83.54
8894;BME280;4483;48.622;9.230;2023-01-29T08:07:34;98987.66;;;1.64;83.78
8894;BME280;4483;48.622;9.230;2023-01-29T08:10:00;98991.88;;;1.63;83.04
8894;BME280;4483;48.622;9.230;2023-01-29T08:12:28;98989.31;;;1.62;83.40
8894;BME280;4483;48.622;9.230;2023-01-29T08:14:55;98990.19;;;1.64;82.96
8894;BME280;4483;48.622;9.230;2023-01-29T08:17:22;98986.78;;;1.63;83.48
8894;BME280;4483;48.622;9.230;2023-01-29T08:19:48;98986.84;;;1.68;83.21
8894;BME280;4483;48.622;9.230;2023-01-29T08:22:15;98986.00;;;1.69;83.16
8894;BME280;4483;48.622;9.230;2023-01-29T08:24:42;98986.88;;;1.71;82.95
8894;BME280;4483;48.622;9.230;2023-01-29T08:27:08;98979.25;;;1.71;82.91
8894;BME280;4483;48.622;9.230;2023-01-29T08:29:36;98976.78;;;1.75;82.68
8894;BME280;4483;48.622;9.230;2023-01-29T08:32:03;98975.13;;;1.77;82.67
8894;BME280;4483;48.622;9.230;2023-01-29T08:34:30;98979.44;;;1.83;82.53
8894;BME280;4483;48.622;9.230;2023-01-29T08:36:57;98984.50;;;1.83;81.94
8894;BME280;4483;48.622;9.230;2023-01-29T08:39:23;98991.25;;;1.81;81.75
8894;BME280;4483;48.622;9.230;2023-01-29T08:41:50;98994.63;;;1.81;81.81
8894;BME280;4483;48.622;9.230;2023-01-29T08:44:17;99004.84;;;1.83;81.84
8894;BME280;4483;48.622;9.230;2023-01-29T08:46:45;99003.19;;;1.85;81.63
8894;BME280;4483;48.622;9.230;2023-01-29T08:49:11;99000.66;;;1.88;81.79
8894;BME280;4483;48.622;9.230;2023-01-29T08:51:38;99002.41;;;1.92;81.84
8894;BME280;4483;48.622;9.230;2023-01-29T08:54:05;98996.50;;;1.96;81.64
8894;BME280;4483;48.622;9.230;2023-01-29T08:56:31;99006.72;;;1.97;80.97
8894;BME280;4483;48.622;9.230;2023-01-29T08:58:58;99008.41;;;2.00;80.27
8894;BME280;4483;48.622;9.230;2023-01-29T09:01:25;99009.28;;;2.02;80.80
8894;BME280;4483;48.622;9.230;2023-01-29T09:03:53;99011.88;;;2.05;80.54
8894;BME280;4483;48.622;9.230;2023-01-29T09:06:19;99007.63;;;2.04;80.77
8894;BME280;4483;48.622;9.230;2023-01-29T09:08:46;99013.59;;;2.09;80.34
8894;BME280;4483;48.622;9.230;2023-01-29T09:11:14;99017.00;;;2.08;79.90
8894;BME280;4483;48.622;9.230;2023-01-29T09:13:40;99017.06;;;2.14;78.86
8894;BME280;4483;48.622;9.230;2023-01-29T09:16:08;99022.09;;;2.10;79.00
8894;BME280;4483;48.622;9.230;2023-01-29T09:18:35;99021.19;;;2.03;78.09
8894;BME280;4483;48.622;9.230;2023-01-29T09:21:04;99022.78;;;1.98;78.73
8894;BME280;4483;48.622;9.230;2023-01-29T09:23:31;99024.44;;;1.94;78.33
8894;BME280;4483;48.622;9.230;2023-01-29T09:25:57;99024.44;;;1.94;78.72
8894;BME280;4483;48.622;9.230;2023-01-29T09:28:24;99016.84;;;1.96;78.14
8894;BME280;4483;48.622;9.230;2023-01-29T09:30:51;99027.09;;;2.02;78.37
8894;BME280;4483;48.622;9.230;2023-01-29T09:33:18;99028.84;;;2.06;78.31
8894;BME280;4483;48.622;9.230;2023-01-29T09:35:45;99011.91;;;2.08;78.48
8894;BME280;4483;48.622;9.230;2023-01-29T09:38:14;99018.75;;;2.15;78.20
8894;BME280;4483;48.622;9.230;2023-01-29T09:40:51;99024.75;;;2.19;77.73
8894;BME280;4483;48.622;9.230;2023-01-29T09:43:24;99005.25;;;2.19;77.64
8894;BME280;4483;48.622;9.230;2023-01-29T09:45:55;99010.34;;;2.21;76.19
8894;BME280;4483;48.622;9.230;2023-01-29T09:48:26;99014.59;;;2.22;76.90
8894;BME280;4483;48.622;9.230;2023-01-29T09:50:56;99010.38;;;2.24;76.98
8894;BME280;4483;48.622;9.230;2023-01-29T09:53:29;99003.59;;;2.24;76.72
8894;BME280;4483;48.622;9.230;2023-01-29T09:56:01;99011.25;;;2.27;75.95
8894;BME280;4483;48.622;9.230;2023-01-29T09:58:31;99010.41;;;2.25;75.88
8894;BME280;4483;48.622;9.230;2023-01-29T10:01:07;99014.69;;;2.29;76.28
8894;BME280;4483;48.622;9.230;2023-01-29T10:04:01;98990.91;;;2.24;75.81
8894;BME280;4483;48.622;9.230;2023-01-29T10:06:42;98998.69;;;2.39;74.87
8894;BME280;4483;48.622;9.230;2023-01-29T10:09:29;99003.69;;;2.33;75.28
8894;BME280;4483;48.622;9.230;2023-01-29T10:12:15;98996.84;;;2.23;74.37
8894;BME280;4483;48.622;9.230;2023-01-29T10:14:50;98977.38;;;2.25;74.80
8894;BME280;4483;48.622;9.230;2023-01-29T10:17:34;98969.84;;;2.39;74.55
8894;BME280;4483;48.622;9.230;2023-01-29T10:20:27;98961.44;;;2.46;74.28
8894;BME280;4483;48.622;9.230;2023-01-29T10:23:11;98947.94;;;2.53;74.38
8894;BME280;4483;48.622;9.230;2023-01-29T10:25:44;98934.53;;;2.70;74.01
8894;BME280;4483;48.622;9.230;2023-01-29T10:28:16;98943.97;;;2.89;73.07
8894;BME280;4483;48.622;9.230;2023-01-29T10:30:48;98934.72;;;3.00;72.99
8894;BME280;4483;48.622;9.230;2023-01-29T10:33:24;98942.47;;;3.16;72.83
8894;BME280;4483;48.622;9.230;2023-01-29T10:35:55;98944.28;;;3.35;72.57
8894;BME280;4483;48.622;9.230;2023-01-29T10:38:30;98949.44;;;3.42;71.49
8894;BME280;4483;48.622;9.230;2023-01-29T10:41:11;98934.16;;;3.47;70.91
8894;BME280;4483;48.622;9.230;2023-01-29T10:43:47;98938.47;;;3.61;70.98
8894;BME280;4483;48.622;9.230;2023-01-29T10:46:24;98946.13;;;3.64;68.41
8894;BME280;4483;48.622;9.230;2023-01-29T10:48:59;98959.72;;;3.63;67.70
8894;BME280;4483;48.622;9.230;2023-01-29T10:51:43;98954.56;;;3.50;68.89
8894;BME280;4483;48.622;9.230;2023-01-29T10:54:33;98957.97;;;3.56;68.84
8894;BME280;4483;48.622;9.230;2023-01-29T10:57:10;98941.00;;;3.63;68.13
8894;BME280;4483;48.622;9.230;2023-01-29T10:59:52;98934.22;;;3.65;67.85
8894;BME280;4483;48.622;9.230;2023-01-29T11:02:23;98940.22;;;3.74;68.43
8894;BME280;4483;48.622;9.230;2023-01-29T11:04:50;98936.84;;;3.81;67.47
8894;BME280;4483;48.622;9.230;2023-01-29T11:07:18;98933.47;;;3.87;67.54
8894;BME280;4483;48.622;9.230;2023-01-29T11:09:51;98934.31;;;3.92;67.55
8894;BME280;4483;48.622;9.230;2023-01-29T11:12:26;98925.03;;;4.06;67.91
8894;BME280;4483;48.622;9.230;2023-01-29T11:14:58;98934.41;;;4.25;67.47
8894;BME280;4483;48.622;9.230;2023-01-29T11:17:27;98921.69;;;4.46;66.86
8894;BME280;4483;48.622;9.230;2023-01-29T11:19:54;98932.75;;;4.57;66.19
8894;BME280;4483;48.622;9.230;2023-01-29T11:22:22;98931.91;;;4.70;66.44
8894;BME280;4483;48.622;9.230;2023-01-29T11:25:08;98931.06;;;4.83;65.45
8894;BME280;4483;48.622;9.230;2023-01-29T11:27:43;98931.03;;;4.92;65.53
8894;BME280;4483;48.622;9.230;2023-01-29T11:30:16;98927.63;;;5.07;64.55
8894;BME280;4483;48.622;9.230;2023-01-29T11:32:49;98925.03;;;5.21;63.39
8894;BME280;4483;48.622;9.230;2023-01-29T11:35:22;98920.75;;;5.27;63.51
8894;BME280;4483;48.622;9.230;2023-01-29T11:37:49;98915.66;;;5.29;63.20
8894;BME280;4483;48.622;9.230;2023-01-29T11:40:32;98921.59;;;5.19;62.47
8894;BME280;4483;48.622;9.230;2023-01-29T11:43:17;98920.81;;;5.01;62.62
8894;BME280;4483;48.622;9.230;2023-01-29T11:45:44;98920.81;;;4.97;62.90
8894;BME280;4483;48.622;9.230;2023-01-29T11:48:14;98918.25;;;5.03;63.45
8894;BME280;4483;48.622;9.230;2023-01-29T11:50:42;98913.13;;;5.20;62.30
8894;BME280;4483;48.622;9.230;2023-01-29T11:53:22;98902.84;;;5.38;61.83
8894;BME280;4483;48.622;9.230;2023-01-29T11:55:50;98892.59;;;5.44;61.31
8894;BME280;4483;48.622;9.230;2023-01-29T11:58:22;98881.41;;;5.69;60.46
8894;BME280;4483;48.622;9.230;2023-01-29T12:00:52;98884.75;;;5.84;59.79
8894;BME280;4483;48.622;9.230;2023-01-29T12:03:23;98889.00;;;5.81;59.34
8894;BME280;4483;48.622;9.230;2023-01-29T12:05:56;98878.91;;;5.58;60.05
8894;BME280;4483;48.622;9.230;2023-01-29T12:08:23;98878.06;;;5.53;59.46
8894;BME280;4483;48.622;9.230;2023-01-29T12:10:50;98867.94;;;5.32;60.46
8894;BME280;4483;48.622;9.230;2023-01-29T12:13:25;98876.47;;;5.28;60.48
8894;BME280;4483;48.622;9.230;2023-01-29T12:16:08;98873.88;;;5.31;60.92
8894;BME280;4483;48.622;9.230;2023-01-29T12:18:38;98873.03;;;5.34;60.26
8894;BME280;4483;48.622;9.230;2023-01-29T12:21:13;98866.25;;;5.25;60.13
8894;BME280;4483;48.622;9.230;2023-01-29T12:23:46;98859.41;;;5.30;61.12
8894;BME280;4483;48.622;9.230;2023-01-29T12:26:21;98846.59;;;5.41;60.36
8894;BME280;4483;48.622;9.230;2023-01-29T12:28:56;98847.41;;;5.50;60.02
8894;BME280;4483;48.622;9.230;2023-01-29T12:31:35;98842.25;;;5.64;59.66
8894;BME280;4483;48.622;9.230;2023-01-29T12:34:11;98834.47;;;5.79;59.32
8894;BME280;4483;48.622;9.230;2023-01-29T12:36:46;98819.88;;;5.99;59.50
8894;BME280;4483;48.622;9.230;2023-01-29T12:39:18;98804.44;;;6.11;58.09
8894;BME280;4483;48.622;9.230;2023-01-29T12:41:48;98797.50;;;6.25;58.62
8894;BME280;4483;48.622;9.230;2023-01-29T12:44:20;98793.25;;;6.21;58.14
8894;BME280;4483;48.622;9.230;2023-01-29T12:46:51;98780.50;;;6.18;57.80
8894;BME280;4483;48.622;9.230;2023-01-29T12:49:22;98782.22;;;6.18;57.30
8894;BME280;4483;48.622;9.230;2023-01-29T12:51:55;98771.94;;;6.24;57.23
8894;BME280;4483;48.622;9.230;2023-01-29T12:54:32;98756.66;;;6.15;57.30
8894;BME280;4483;48.622;9.230;2023-01-29T12:57:03;98754.94;;;6.17;57.13
8894;BME280;4483;48.622;9.230;2023-01-29T12:59:40;98749.69;;;6.30;57.32
8894;BME280;4483;48.622;9.230;2023-01-29T13:02:29;98735.16;;;6.35;57.20
8894;BME280;4483;48.622;9.230;2023-01-29T13:05:01;98742.00;;;6.33;56.79
8894;BME280;4483;48.622;9.230;2023-01-29T13:07:32;98739.44;;;6.33;57.10
8894;BME280;4483;48.622;9.230;2023-01-29T13:10:06;98739.41;;;6.35;56.90
8894;BME280;4483;48.622;9.230;2023-01-29T13:12:35;98739.47;;;6.27;56.97
8894;BME280;4483;48.622;9.230;2023-01-29T13:15:16;98740.44;;;6.14;57.30
8894;BME280;4483;48.622;9.230;2023-01-29T13:17:49;98747.38;;;6.06;57.66
8894;BME280;4483;48.622;9.230;2023-01-29T13:20:22;98748.25;;;6.00;57.96
8894;BME280;4483;48.622;9.230;2023-01-29T13:22:51;98749.97;;;6.00;57.65
8894;BME280;4483;48.622;9.230;2023-01-29T13:25:21;98743.22;;;5.90;57.66
8894;BME280;4483;48.622;9.230;2023-01-29T13:27:47;98740.72;;;5.84;58.09
8894;BME280;4483;48.622;9.230;2023-01-29T13:30:28;98730.47;;;5.81;58.55
8894;BME280;4483;48.622;9.230;2023-01-29T13:32:56;98731.34;;;5.78;58.33
8894;BME280;4483;48.622;9.230;2023-01-29T13:35:34;98731.34;;;5.77;58.42
8894;BME280;4483;48.622;9.230;2023-01-29T13:38:02;98737.34;;;5.70;58.24
8894;BME280;4483;48.622;9.230;2023-01-29T13:40:30;98736.59;;;5.62;58.94
8894;BME280;4483;48.622;9.230;2023-01-29T13:42:59;98738.34;;;5.52;58.76
8894;BME280;4483;48.622;9.230;2023-01-29T13:45:33;98741.78;;;5.42;59.05
8894;BME280;4483;48.622;9.230;2023-01-29T13:48:08;98731.66;;;5.30;58.85
8894;BME280;4483;48.622;9.230;2023-01-29T13:50:37;98734.28;;;5.17;59.15
8894;BME280;4483;48.622;9.230;2023-01-29T13:53:06;98732.56;;;5.19;59.75